sensor_id;sensor_type;location;lat;lon;timestamp;temperature;humidity
45849;DHT22;31567;54.600;9.842;2022-12-18T00:00:43;-2.10;99.90
45849;DHT22;31567;54.600;9.842;2022-12-18T00:04:24;-2.00;99.90
45849;DHT22;31567;54.600;9.842;2022-12-18T00:08:04;-2.00;99.90
45849;DHT22;31567;54.600;9.842;2022-12-18T00:11:44;-1.90;99.90
45849;DHT22;31567;54.600;9.842;2022-12-18T00:15:23;-1.90;99.90
45849;DHT22;31567;54.600;9.842;2022-12-18T00:19:03;-1.80;99.90
45849;DHT22;31567;54.600;9.842;2022-12-18T00:22:43;-1.80;99.90
45849;DHT22;31567;54.600;9.842;2022-12-18T00:26:29;-1.90;99.90
45849;DHT22;31567;54.600;9.842;2022-12-18T00:30:09;-1.90;99.90
45849;DHT22;31567;54.600;9.842;2022-12-18T00:33:48;-2.00;99.90
45849;DHT22;31567;54.600;9.842;2022-12-18T00:37:28;-2.00;99.90
45849;DHT22;31567;54.600;9.842;2022-12-18T00:41:09;-2.10;99.90
45849;DHT22;31567;54.600;9.842;2022-12-18T00:44:49;-2.10;99.90
45849;DHT22;31567;54.600;9.842;2022-12-18T00:48:28;-2.00;99.90
45849;DHT22;31567;54.600;9.842;2022-12-18T00:52:08;-2.00;99.90
45849;DHT22;31567;54.600;9.842;2022-12-18T00:55:48;-2.00;99.90
45849;DHT22;31567;54.600;9.842;2022-12-18T00:59:27;-2.20;99.90
45849;DHT22;31567;54.600;9.842;2022-12-18T01:03:07;-2.10;99.90
45849;DHT22;31567;54.600;9.842;2022-12-18T01:06:46;-2.10;99.90
45849;DHT22;31567;54.600;9.842;2022-12-18T01:10:26;-2.10;99.90
45849;DHT22;31567;54.600;9.842;2022-12-18T01:14:06;-2.20;99.90
45849;DHT22;31567;54.600;9.842;2022-12-18T01:17:45;-2.20;99.90
45849;DHT22;31567;54.600;9.842;2022-12-18T01:21:25;-2.10;99.90
45849;DHT22;31567;54.600;9.842;2022-12-18T01:25:05;-2.10;99.90
45849;DHT22;31567;54.600;9.842;2022-12-18T01:28:45;-2.00;99.90
45849;DHT22;31567;54.600;9.842;2022-12-18T01:32:24;-2.00;99.90
45849;DHT22;31567;54.600;9.842;2022-12-18T01:36:04;-1.90;99.90
45849;DHT22;31567;54.600;9.842;2022-12-18T01:39:43;-1.90;99.90
45849;DHT22;31567;54.600;9.842;2022-12-18T01:43:58;-1.90;99.90
45849;DHT22;31567;54.600;9.842;2022-12-18T01:47:53;-2.00;99.90
45849;DHT22;31567;54.600;9.842;2022-12-18T01:51:34;-2.00;99.90
45849;DHT22;31567;54.600;9.842;2022-12-18T01:55:17;-2.00;99.90
45849;DHT22;31567;54.600;9.842;2022-12-18T01:59:04;-2.00;99.90
45849;DHT22;31567;54.600;9.842;2022-12-18T02:02:46;-2.00;99.90
45849;DHT22;31567;54.600;9.842;2022-12-18T02:06:32;-2.10;99.90
45849;DHT22;31567;54.600;9.842;2022-12-18T02:18:37;-2.20;99.90
45849;DHT22;31567;54.600;9.842;2022-12-18T02:30:05;-2.20;99.90
45849;DHT22;31567;54.600;9.842;2022-12-18T02:33:45;-2.20;99.90
45849;DHT22;31567;54.600;9.842;2022-12-18T02:37:25;-2.20;99.90
45849;DHT22;31567;54.600;9.842;2022-12-18T02:41:06;-2.20;99.90
45849;DHT22;31567;54.600;9.842;2022-12-18T02:44:48;-2.10;99.90
45849;DHT22;31567;54.600;9.842;2022-12-18T02:48:33;-2.10;99.90
45849;DHT22;31567;54.600;9.842;2022-12-18T02:56:15;-2.10;99.90
45849;DHT22;31567;54.600;9.842;2022-12-18T03:00:20;-2.10;99.90
45849;DHT22;31567;54.600;9.842;2022-12-18T03:04:05;-2.20;99.90
45849;DHT22;31567;54.600;9.842;2022-12-18T03:07:57;-2.20;99.90
45849;DHT22;31567;54.600;9.842;2022-12-18T03:11:41;-2.30;99.90
45849;DHT22;31567;54.600;9.842;2022-12-18T03:15:45;-2.30;99.90
45849;DHT22;31567;54.600;9.842;2022-12-18T03:19:28;-2.20;99.90
45849;DHT22;31567;54.600;9.842;2022-12-18T03:23:15;-2.30;99.90
45849;DHT22;31567;54.600;9.842;2022-12-18T03:27:01;-2.20;99.90
45849;DHT22;31567;54.600;9.842;2022-12-18T03:30:43;-2.20;99.90
45849;DHT22;31567;54.600;9.842;2022-12-18T03:34:28;-2.20;99.90
45849;DHT22;31567;54.600;9.842;2022-12-18T03:38:09;-2.10;99.90
45849;DHT22;31567;54.600;9.842;2022-12-18T03:46:07;-2.10;99.90
45849;DHT22;31567;54.600;9.842;2022-12-18T03:50:03;-2.10;99.90
45849;DHT22;31567;54.600;9.842;2022-12-18T03:53:58;-2.10;99.90
45849;DHT22;31567;54.600;9.842;2022-12-18T03:57:39;-2.20;99.90
45849;DHT22;31567;54.600;9.842;2022-12-18T04:01:27;-2.20;99.90
45849;DHT22;31567;54.600;9.842;2022-12-18T04:05:09;-2.40;99.90
45849;DHT22;31567;54.600;9.842;2022-12-18T04:08:50;-2.30;99.90
45849;DHT22;31567;54.600;9.842;2022-12-18T04:12:30;-2.40;99.90
45849;DHT22;31567;54.600;9.842;2022-12-18T04:16:09;-2.50;99.90
45849;DHT22;31567;54.600;9.842;2022-12-18T04:19:49;-2.50;99.90
45849;DHT22;31567;54.600;9.842;2022-12-18T04:23:29;-2.50;99.90
45849;DHT22;31567;54.600;9.842;2022-12-18T04:27:08;-2.50;99.90
45849;DHT22;31567;54.600;9.842;2022-12-18T04:30:48;-2.40;99.90
45849;DHT22;31567;54.600;9.842;2022-12-18T04:34:28;-2.40;99.90
45849;DHT22;31567;54.600;9.842;2022-12-18T04:38:08;-2.40;99.90
45849;DHT22;31567;54.600;9.842;2022-12-18T04:41:48;-2.40;99.90
45849;DHT22;31567;54.600;9.842;2022-12-18T04:45:27;-2.40;99.90
45849;DHT22;31567;54.600;9.842;2022-12-18T04:49:07;-2.40;99.90
45849;DHT22;31567;54.600;9.842;2022-12-18T04:52:46;-2.30;99.90
45849;DHT22;31567;54.600;9.842;2022-12-18T04:56:26;-2.30;99.90
45849;DHT22;31567;54.600;9.842;2022-12-18T05:00:07;-2.30;99.90
45849;DHT22;31567;54.600;9.842;2022-12-18T05:03:47;-2.30;99.90
45849;DHT22;31567;54.600;9.842;2022-12-18T05:07:26;-2.40;99.90
45849;DHT22;31567;54.600;9.842;2022-12-18T05:11:08;-2.40;99.90
45849;DHT22;31567;54.600;9.842;2022-12-18T05:14:48;-2.40;99.90
45849;DHT22;31567;54.600;9.842;2022-12-18T05:18:28;-2.40;99.90
45849;DHT22;31567;54.600;9.842;2022-12-18T05:22:08;-2.40;99.90
45849;DHT22;31567;54.600;9.842;2022-12-18T05:29:34;-2.30;99.90
45849;DHT22;31567;54.600;9.842;2022-12-18T05:33:14;-2.30;99.90
45849;DHT22;31567;54.600;9.842;2022-12-18T05:36:54;-2.30;99.90
45849;DHT22;31567;54.600;9.842;2022-12-18T05:40:33;-2.30;99.90
45849;DHT22;31567;54.600;9.842;2022-12-18T05:44:13;-2.30;99.90
45849;DHT22;31567;54.600;9.842;2022-12-18T05:47:52;-2.40;99.90
45849;DHT22;31567;54.600;9.842;2022-12-18T05:51:32;-2.40;99.90
45849;DHT22;31567;54.600;9.842;2022-12-18T05:55:11;-2.40;99.90
45849;DHT22;31567;54.600;9.842;2022-12-18T05:58:52;-2.40;99.90
45849;DHT22;31567;54.600;9.842;2022-12-18T06:02:32;-2.50;99.90
45849;DHT22;31567;54.600;9.842;2022-12-18T06:06:20;-2.50;99.90
45849;DHT22;31567;54.600;9.842;2022-12-18T06:10:00;-2.50;99.90
45849;DHT22;31567;54.600;9.842;2022-12-18T06:13:39;-2.60;99.90
45849;DHT22;31567;54.600;9.842;2022-12-18T06:17:19;-2.60;99.90
45849;DHT22;31567;54.600;9.842;2022-12-18T06:20:59;-2.60;99.90
45849;DHT22;31567;54.600;9.842;2022-12-18T06:24:39;-2.60;99.90
45849;DHT22;31567;54.600;9.842;2022-12-18T06:28:18;-2.70;99.90
45849;DHT22;31567;54.600;9.842;2022-12-18T06:31:58;-2.70;99.90
45849;DHT22;31567;54.600;9.842;2022-12-18T06:35:37;-2.70;99.90
45849;DHT22;31567;54.600;9.842;2022-12-18T06:39:17;-2.60;99.90
45849;DHT22;31567;54.600;9.842;2022-12-18T06:42:57;-2.60;99.90
45849;DHT22;31567;54.600;9.842;2022-12-18T06:46:36;-2.60;99.90
45849;DHT22;31567;54.600;9.842;2022-12-18T06:50:17;-2.60;99.90
45849;DHT22;31567;54.600;9.842;2022-12-18T06:53:56;-2.60;99.90
45849;DHT22;31567;54.600;9.842;2022-12-18T06:57:37;-2.70;99.90
45849;DHT22;31567;54.600;9.842;2022-12-18T07:01:16;-2.70;99.90
45849;DHT22;31567;54.600;9.842;2022-12-18T07:04:56;-2.70;99.90
45849;DHT22;31567;54.600;9.842;2022-12-18T07:08:35;-2.80;99.90
45849;DHT22;31567;54.600;9.842;2022-12-18T07:12:15;-2.80;99.90
45849;DHT22;31567;54.600;9.842;2022-12-18T07:15:55;-2.70;99.90
45849;DHT22;31567;54.600;9.842;2022-12-18T07:19:34;-2.80;99.90
45849;DHT22;31567;54.600;9.842;2022-12-18T07:23:14;-2.80;99.90
45849;DHT22;31567;54.600;9.842;2022-12-18T07:26:53;-2.70;99.90
45849;DHT22;31567;54.600;9.842;2022-12-18T07:30:33;-2.60;99.90
45849;DHT22;31567;54.600;9.842;2022-12-18T07:34:13;-2.60;99.90
45849;DHT22;31567;54.600;9.842;2022-12-18T07:37:53;-2.60;99.90
45849;DHT22;31567;54.600;9.842;2022-12-18T07:41:32;-2.60;99.90
45849;DHT22;31567;54.600;9.842;2022-12-18T07:45:12;-2.60;99.90
45849;DHT22;31567;54.600;9.842;2022-12-18T07:48:51;-2.70;99.90
45849;DHT22;31567;54.600;9.842;2022-12-18T07:52:31;-2.60;99.90
45849;DHT22;31567;54.600;9.842;2022-12-18T07:56:12;-2.70;99.90
45849;DHT22;31567;54.600;9.842;2022-12-18T07:59:51;-2.70;99.90
45849;DHT22;31567;54.600;9.842;2022-12-18T08:03:31;-2.70;99.90
45849;DHT22;31567;54.600;9.842;2022-12-18T08:07:11;-2.70;99.90
45849;DHT22;31567;54.600;9.842;2022-12-18T08:10:50;-2.80;99.90
45849;DHT22;31567;54.600;9.842;2022-12-18T08:14:30;-2.70;99.90
45849;DHT22;31567;54.600;9.842;2022-12-18T08:18:09;-2.70;99.90
45849;DHT22;31567;54.600;9.842;2022-12-18T08:21:49;-2.70;99.90
45849;DHT22;31567;54.600;9.842;2022-12-18T08:25:28;-2.70;99.90
45849;DHT22;31567;54.600;9.842;2022-12-18T08:29:09;-2.70;99.90
45849;DHT22;31567;54.600;9.842;2022-12-18T08:32:51;-2.70;99.90
45849;DHT22;31567;54.600;9.842;2022-12-18T08:36:32;-2.60;99.90
45849;DHT22;31567;54.600;9.842;2022-12-18T08:40:11;-2.60;99.90
45849;DHT22;31567;54.600;9.842;2022-12-18T08:43:52;-2.50;99.90
45849;DHT22;31567;54.600;9.842;2022-12-18T08:47:50;-2.60;99.90
45849;DHT22;31567;54.600;9.842;2022-12-18T08:51:29;-2.60;99.90
45849;DHT22;31567;54.600;9.842;2022-12-18T08:55:09;-2.50;99.90
45849;DHT22;31567;54.600;9.842;2022-12-18T08:58:52;-2.50;99.90
45849;DHT22;31567;54.600;9.842;2022-12-18T09:02:32;-2.50;99.90
45849;DHT22;31567;54.600;9.842;2022-12-18T09:06:15;-2.40;99.90
45849;DHT22;31567;54.600;9.842;2022-12-18T09:09:55;-2.30;99.90
45849;DHT22;31567;54.600;9.842;2022-12-18T09:13:34;-2.20;99.90
45849;DHT22;31567;54.600;9.842;2022-12-18T09:17:14;-2.10;99.90
45849;DHT22;31567;54.600;9.842;2022-12-18T09:20:53;-2.00;99.90
45849;DHT22;31567;54.600;9.842;2022-12-18T09:24:33;-1.90;99.90
45849;DHT22;31567;54.600;9.842;2022-12-18T09:28:14;-1.80;99.80
45849;DHT22;31567;54.600;9.842;2022-12-18T09:31:54;-1.70;99.90
45849;DHT22;31567;54.600;9.842;2022-12-18T09:35:37;-1.60;99.70
45849;DHT22;31567;54.600;9.842;2022-12-18T09:39:18;-1.50;99.50
45849;DHT22;31567;54.600;9.842;2022-12-18T09:43:03;-1.40;99.50
45849;DHT22;31567;54.600;9.842;2022-12-18T09:46:56;-1.30;99.40
45849;DHT22;31567;54.600;9.842;2022-12-18T09:50:39;-1.20;99.10
45849;DHT22;31567;54.600;9.842;2022-12-18T09:54:35;-1.40;98.50
45849;DHT22;31567;54.600;9.842;2022-12-18T09:58:39;-1.30;98.50
45849;DHT22;31567;54.600;9.842;2022-12-18T10:02:23;-1.30;98.40
45849;DHT22;31567;54.600;9.842;2022-12-18T10:10:03;-1.40;97.70
45849;DHT22;31567;54.600;9.842;2022-12-18T10:13:57;-1.40;97.70
45849;DHT22;31567;54.600;9.842;2022-12-18T10:17:55;-1.30;97.90
45849;DHT22;31567;54.600;9.842;2022-12-18T10:25:31;-1.30;98.10
45849;DHT22;31567;54.600;9.842;2022-12-18T10:29:15;-1.40;98.00
45849;DHT22;31567;54.600;9.842;2022-12-18T10:33:01;-1.30;97.90
45849;DHT22;31567;54.600;9.842;2022-12-18T10:36:41;-1.30;97.90
45849;DHT22;31567;54.600;9.842;2022-12-18T10:40:21;-1.40;97.70
45849;DHT22;31567;54.600;9.842;2022-12-18T10:44:23;-1.40;97.80
45849;DHT22;31567;54.600;9.842;2022-12-18T10:48:18;-1.30;97.60
45849;DHT22;31567;54.600;9.842;2022-12-18T10:52:19;-1.30;97.80
45849;DHT22;31567;54.600;9.842;2022-12-18T10:56:01;-1.20;97.90
45849;DHT22;31567;54.600;9.842;2022-12-18T10:59:52;-1.20;97.80
45849;DHT22;31567;54.600;9.842;2022-12-18T11:03:35;-1.10;97.60
45849;DHT22;31567;54.600;9.842;2022-12-18T11:07:15;-1.00;97.60
45849;DHT22;31567;54.600;9.842;2022-12-18T11:10:54;-0.80;97.80
45849;DHT22;31567;54.600;9.842;2022-12-18T11:14:44;-0.60;97.80
45849;DHT22;31567;54.600;9.842;2022-12-18T11:18:35;-0.30;97.70
45849;DHT22;31567;54.600;9.842;2022-12-18T11:22:32;-0.20;97.40
45849;DHT22;31567;54.600;9.842;2022-12-18T11:26:13;0.00;97.10
45849;DHT22;31567;54.600;9.842;2022-12-18T11:29:52;0.00;96.60
45849;DHT22;31567;54.600;9.842;2022-12-18T11:33:32;0.00;96.40
45849;DHT22;31567;54.600;9.842;2022-12-18T11:37:13;0.10;96.20
45849;DHT22;31567;54.600;9.842;2022-12-18T11:45:22;0.20;96.30
45849;DHT22;31567;54.600;9.842;2022-12-18T11:49:25;0.00;95.60
45849;DHT22;31567;54.600;9.842;2022-12-18T11:53:10;-0.10;95.50
45849;DHT22;31567;54.600;9.842;2022-12-18T12:05:25;-0.20;95.60
45849;DHT22;31567;54.600;9.842;2022-12-18T12:16:53;-0.10;95.70
45849;DHT22;31567;54.600;9.842;2022-12-18T12:25:01;0.00;95.70
45849;DHT22;31567;54.600;9.842;2022-12-18T12:29:13;0.00;95.40
45849;DHT22;31567;54.600;9.842;2022-12-18T12:41:04;0.00;95.50
45849;DHT22;31567;54.600;9.842;2022-12-18T12:44:50;0.00;95.50
45849;DHT22;31567;54.600;9.842;2022-12-18T12:48:46;0.10;95.50
45849;DHT22;31567;54.600;9.842;2022-12-18T12:52:40;0.20;95.60
45849;DHT22;31567;54.600;9.842;2022-12-18T12:56:22;0.40;95.70
45849;DHT22;31567;54.600;9.842;2022-12-18T13:00:10;0.40;95.50
45849;DHT22;31567;54.600;9.842;2022-12-18T13:08:27;0.50;95.30
45849;DHT22;31567;54.600;9.842;2022-12-18T13:12:11;0.50;94.90
45849;DHT22;31567;54.600;9.842;2022-12-18T13:16:09;0.50;95.00
45849;DHT22;31567;54.600;9.842;2022-12-18T13:23:42;0.70;95.20
45849;DHT22;31567;54.600;9.842;2022-12-18T13:27:45;0.80;95.20
45849;DHT22;31567;54.600;9.842;2022-12-18T13:42:53;1.10;94.80
45849;DHT22;31567;54.600;9.842;2022-12-18T13:46:52;1.00;94.80
45849;DHT22;31567;54.600;9.842;2022-12-18T13:50:33;1.00;94.90
45849;DHT22;31567;54.600;9.842;2022-12-18T13:58:11;1.00;94.90
45849;DHT22;31567;54.600;9.842;2022-12-18T14:05:34;0.90;94.70
45849;DHT22;31567;54.600;9.842;2022-12-18T14:09:16;0.90;94.70
45849;DHT22;31567;54.600;9.842;2022-12-18T14:13:02;0.90;94.70
45849;DHT22;31567;54.600;9.842;2022-12-18T14:16:43;0.90;94.60
45849;DHT22;31567;54.600;9.842;2022-12-18T14:20:25;0.80;94.60
45849;DHT22;31567;54.600;9.842;2022-12-18T14:31:45;0.70;94.50
45849;DHT22;31567;54.600;9.842;2022-12-18T14:35:25;0.60;94.60
45849;DHT22;31567;54.600;9.842;2022-12-18T14:39:05;0.60;94.60
45849;DHT22;31567;54.600;9.842;2022-12-18T14:42:44;0.60;94.70
45849;DHT22;31567;54.600;9.842;2022-12-18T14:46:41;0.60;94.60
45849;DHT22;31567;54.600;9.842;2022-12-18T14:50:21;0.50;94.60
45849;DHT22;31567;54.600;9.842;2022-12-18T14:54:16;0.50;94.50
45849;DHT22;31567;54.600;9.842;2022-12-18T14:57:56;0.50;94.50
45849;DHT22;31567;54.600;9.842;2022-12-18T15:01:38;0.30;94.50
45849;DHT22;31567;54.600;9.842;2022-12-18T15:05:26;0.30;94.70
45849;DHT22;31567;54.600;9.842;2022-12-18T15:09:25;0.30;94.70
45849;DHT22;31567;54.600;9.842;2022-12-18T15:16:50;0.20;94.70
45849;DHT22;31567;54.600;9.842;2022-12-18T15:20:31;0.10;94.70
45849;DHT22;31567;54.600;9.842;2022-12-18T15:24:18;0.10;94.60
45849;DHT22;31567;54.600;9.842;2022-12-18T15:27:59;0.10;94.70
45849;DHT22;31567;54.600;9.842;2022-12-18T15:31:39;0.10;94.70
45849;DHT22;31567;54.600;9.842;2022-12-18T15:35:22;0.10;94.60
45849;DHT22;31567;54.600;9.842;2022-12-18T15:39:03;0.10;94.60
45849;DHT22;31567;54.600;9.842;2022-12-18T15:42:43;0.10;94.50
45849;DHT22;31567;54.600;9.842;2022-12-18T15:46:42;0.00;94.40
45849;DHT22;31567;54.600;9.842;2022-12-18T15:50:21;-0.10;94.40
45849;DHT22;31567;54.600;9.842;2022-12-18T15:54:04;-0.10;94.50
45849;DHT22;31567;54.600;9.842;2022-12-18T15:57:44;-0.20;94.50
45849;DHT22;31567;54.600;9.842;2022-12-18T16:01:26;-0.30;94.70
45849;DHT22;31567;54.600;9.842;2022-12-18T16:05:14;-0.30;94.80
45849;DHT22;31567;54.600;9.842;2022-12-18T16:08:54;-0.40;94.80
45849;DHT22;31567;54.600;9.842;2022-12-18T16:12:34;-0.50;94.80
45849;DHT22;31567;54.600;9.842;2022-12-18T16:16:13;-0.60;94.80
45849;DHT22;31567;54.600;9.842;2022-12-18T16:19:53;-0.60;94.90
45849;DHT22;31567;54.600;9.842;2022-12-18T16:23:32;-0.60;94.90
45849;DHT22;31567;54.600;9.842;2022-12-18T16:27:12;-0.60;95.00
45849;DHT22;31567;54.600;9.842;2022-12-18T16:30:51;-0.60;95.00
45849;DHT22;31567;54.600;9.842;2022-12-18T16:34:32;-0.60;94.70
45849;DHT22;31567;54.600;9.842;2022-12-18T16:38:12;-0.60;94.90
45849;DHT22;31567;54.600;9.842;2022-12-18T16:41:52;-0.60;94.90
45849;DHT22;31567;54.600;9.842;2022-12-18T16:45:32;-0.60;94.70
45849;DHT22;31567;54.600;9.842;2022-12-18T16:49:16;-0.60;94.70
45849;DHT22;31567;54.600;9.842;2022-12-18T16:52:56;-0.70;94.70
45849;DHT22;31567;54.600;9.842;2022-12-18T16:56:36;-0.70;94.80
45849;DHT22;31567;54.600;9.842;2022-12-18T17:00:15;-0.70;94.90
45849;DHT22;31567;54.600;9.842;2022-12-18T17:03:58;-0.70;95.00
45849;DHT22;31567;54.600;9.842;2022-12-18T17:07:38;-0.80;95.20
45849;DHT22;31567;54.600;9.842;2022-12-18T17:11:18;-0.80;95.30
45849;DHT22;31567;54.600;9.842;2022-12-18T17:14:57;-0.80;95.40
45849;DHT22;31567;54.600;9.842;2022-12-18T17:18:37;-0.90;95.60
45849;DHT22;31567;54.600;9.842;2022-12-18T17:22:16;-0.90;95.70
45849;DHT22;31567;54.600;9.842;2022-12-18T17:25:56;-1.00;95.90
45849;DHT22;31567;54.600;9.842;2022-12-18T17:29:36;-1.00;96.00
45849;DHT22;31567;54.600;9.842;2022-12-18T17:33:16;-1.10;96.10
45849;DHT22;31567;54.600;9.842;2022-12-18T17:36:55;-1.00;96.20
45849;DHT22;31567;54.600;9.842;2022-12-18T17:40:35;-1.00;96.10
45849;DHT22;31567;54.600;9.842;2022-12-18T17:44:16;-1.00;96.10
45849;DHT22;31567;54.600;9.842;2022-12-18T17:47:56;-1.00;96.00
45849;DHT22;31567;54.600;9.842;2022-12-18T17:51:35;-0.90;96.10
45849;DHT22;31567;54.600;9.842;2022-12-18T17:55:15;-1.00;96.10
45849;DHT22;31567;54.600;9.842;2022-12-18T17:58:54;-1.00;96.40
45849;DHT22;31567;54.600;9.842;2022-12-18T18:02:34;-1.10;96.50
45849;DHT22;31567;54.600;9.842;2022-12-18T18:06:14;-1.10;96.60
45849;DHT22;31567;54.600;9.842;2022-12-18T18:09:53;-1.10;96.80
45849;DHT22;31567;54.600;9.842;2022-12-18T18:13:33;-1.10;96.80
45849;DHT22;31567;54.600;9.842;2022-12-18T18:17:31;-1.00;96.80
45849;DHT22;31567;54.600;9.842;2022-12-18T18:21:11;-1.00;96.80
45849;DHT22;31567;54.600;9.842;2022-12-18T18:24:50;-1.00;96.80
45849;DHT22;31567;54.600;9.842;2022-12-18T18:28:30;-1.00;97.10
45849;DHT22;31567;54.600;9.842;2022-12-18T18:32:10;-1.10;97.20
45849;DHT22;31567;54.600;9.842;2022-12-18T18:35:49;-1.10;97.50
45849;DHT22;31567;54.600;9.842;2022-12-18T18:39:29;-1.10;97.80
45849;DHT22;31567;54.600;9.842;2022-12-18T18:43:08;-1.10;97.60
45849;DHT22;31567;54.600;9.842;2022-12-18T18:46:48;-1.20;97.50
45849;DHT22;31567;54.600;9.842;2022-12-18T18:50:27;-1.10;97.50
45849;DHT22;31567;54.600;9.842;2022-12-18T18:54:08;-1.10;97.50
45849;DHT22;31567;54.600;9.842;2022-12-18T18:57:47;-1.10;97.40
45849;DHT22;31567;54.600;9.842;2022-12-18T19:01:27;-1.10;97.10
45849;DHT22;31567;54.600;9.842;2022-12-18T19:05:07;-1.10;97.00
45849;DHT22;31567;54.600;9.842;2022-12-18T19:08:46;-1.00;97.10
45849;DHT22;31567;54.600;9.842;2022-12-18T19:12:26;-0.90;97.20
45849;DHT22;31567;54.600;9.842;2022-12-18T19:16:26;-0.90;97.30
45849;DHT22;31567;54.600;9.842;2022-12-18T19:20:06;-0.80;97.00
45849;DHT22;31567;54.600;9.842;2022-12-18T19:23:46;-0.80;97.00
45849;DHT22;31567;54.600;9.842;2022-12-18T19:27:26;-0.80;97.00
45849;DHT22;31567;54.600;9.842;2022-12-18T19:31:08;-0.80;96.80
45849;DHT22;31567;54.600;9.842;2022-12-18T19:34:49;-0.80;97.00
45849;DHT22;31567;54.600;9.842;2022-12-18T19:38:28;-0.70;96.80
45849;DHT22;31567;54.600;9.842;2022-12-18T19:42:08;-0.60;96.90
45849;DHT22;31567;54.600;9.842;2022-12-18T19:45:53;-0.60;96.90
45849;DHT22;31567;54.600;9.842;2022-12-18T19:49:33;-0.50;96.80
45849;DHT22;31567;54.600;9.842;2022-12-18T19:53:12;-0.50;96.90
45849;DHT22;31567;54.600;9.842;2022-12-18T19:56:52;-0.50;96.60
45849;DHT22;31567;54.600;9.842;2022-12-18T20:00:32;-0.50;96.50
45849;DHT22;31567;54.600;9.842;2022-12-18T20:04:11;-0.50;96.50
45849;DHT22;31567;54.600;9.842;2022-12-18T20:07:51;-0.40;96.60
45849;DHT22;31567;54.600;9.842;2022-12-18T20:11:34;-0.30;96.70
45849;DHT22;31567;54.600;9.842;2022-12-18T20:15:14;-0.30;96.70
45849;DHT22;31567;54.600;9.842;2022-12-18T20:18:53;-0.30;96.50
45849;DHT22;31567;54.600;9.842;2022-12-18T20:22:33;-0.30;96.40
45849;DHT22;31567;54.600;9.842;2022-12-18T20:26:13;-0.40;96.30
45849;DHT22;31567;54.600;9.842;2022-12-18T20:29:52;-0.40;96.30
45849;DHT22;31567;54.600;9.842;2022-12-18T20:33:32;-0.40;96.30
45849;DHT22;31567;54.600;9.842;2022-12-18T20:37:12;-0.40;96.40
45849;DHT22;31567;54.600;9.842;2022-12-18T20:40:52;-0.30;96.70
45849;DHT22;31567;54.600;9.842;2022-12-18T20:44:31;-0.30;96.70
45849;DHT22;31567;54.600;9.842;2022-12-18T20:48:11;-0.30;96.50
45849;DHT22;31567;54.600;9.842;2022-12-18T20:51:52;-0.30;96.60
45849;DHT22;31567;54.600;9.842;2022-12-18T20:55:32;-0.30;96.40
45849;DHT22;31567;54.600;9.842;2022-12-18T20:59:12;-0.30;96.40
45849;DHT22;31567;54.600;9.842;2022-12-18T21:02:51;-0.30;96.30
45849;DHT22;31567;54.600;9.842;2022-12-18T21:06:31;-0.20;96.50
45849;DHT22;31567;54.600;9.842;2022-12-18T21:10:10;-0.30;96.40
45849;DHT22;31567;54.600;9.842;2022-12-18T21:13:50;-0.20;96.50
45849;DHT22;31567;54.600;9.842;2022-12-18T21:17:29;-0.20;96.40
45849;DHT22;31567;54.600;9.842;2022-12-18T21:21:09;-0.20;96.60
45849;DHT22;31567;54.600;9.842;2022-12-18T21:24:49;-0.30;96.10
45849;DHT22;31567;54.600;9.842;2022-12-18T21:28:28;-0.30;96.20
45849;DHT22;31567;54.600;9.842;2022-12-18T21:32:08;-0.20;96.40
45849;DHT22;31567;54.600;9.842;2022-12-18T21:35:48;-0.20;96.30
45849;DHT22;31567;54.600;9.842;2022-12-18T21:39:28;-0.10;96.30
45849;DHT22;31567;54.600;9.842;2022-12-18T21:43:08;-0.10;96.40
45849;DHT22;31567;54.600;9.842;2022-12-18T21:47:07;-0.10;96.20
45849;DHT22;31567;54.600;9.842;2022-12-18T21:50:46;-0.10;96.00
45849;DHT22;31567;54.600;9.842;2022-12-18T21:54:27;-0.10;95.90
45849;DHT22;31567;54.600;9.842;2022-12-18T21:58:07;-0.10;95.70
45849;DHT22;31567;54.600;9.842;2022-12-18T22:01:47;0.00;95.80
45849;DHT22;31567;54.600;9.842;2022-12-18T22:05:27;0.00;95.80
45849;DHT22;31567;54.600;9.842;2022-12-18T22:09:11;0.00;95.90
45849;DHT22;31567;54.600;9.842;2022-12-18T22:12:50;0.00;96.00
45849;DHT22;31567;54.600;9.842;2022-12-18T22:16:30;0.10;95.90
45849;DHT22;31567;54.600;9.842;2022-12-18T22:20:10;0.00;95.70
45849;DHT22;31567;54.600;9.842;2022-12-18T22:24:03;-0.10;95.90
45849;DHT22;31567;54.600;9.842;2022-12-18T22:27:44;-0.10;95.90
45849;DHT22;31567;54.600;9.842;2022-12-18T22:31:46;0.00;96.20
45849;DHT22;31567;54.600;9.842;2022-12-18T22:35:25;-0.10;96.00
45849;DHT22;31567;54.600;9.842;2022-12-18T22:39:06;0.00;96.30
45849;DHT22;31567;54.600;9.842;2022-12-18T22:42:47;0.00;96.40
45849;DHT22;31567;54.600;9.842;2022-12-18T22:46:31;-0.10;96.50
45849;DHT22;31567;54.600;9.842;2022-12-18T22:50:12;-0.10;96.70
45849;DHT22;31567;54.600;9.842;2022-12-18T22:53:52;-0.10;96.70
45849;DHT22;31567;54.600;9.842;2022-12-18T22:57:31;-0.10;96.60
45849;DHT22;31567;54.600;9.842;2022-12-18T23:01:22;-0.10;96.60
45849;DHT22;31567;54.600;9.842;2022-12-18T23:05:05;-0.10;96.80
45849;DHT22;31567;54.600;9.842;2022-12-18T23:08:46;-0.10;96.80
45849;DHT22;31567;54.600;9.842;2022-12-18T23:12:25;-0.10;96.70
45849;DHT22;31567;54.600;9.842;2022-12-18T23:16:06;-0.20;96.60
45849;DHT22;31567;54.600;9.842;2022-12-18T23:19:46;-0.20;96.90
45849;DHT22;31567;54.600;9.842;2022-12-18T23:23:26;-0.20;96.90
45849;DHT22;31567;54.600;9.842;2022-12-18T23:27:05;-0.30;96.70
45849;DHT22;31567;54.600;9.842;2022-12-18T23:30:45;-0.30;97.10
45849;DHT22;31567;54.600;9.842;2022-12-18T23:34:24;-0.30;97.40
45849;DHT22;31567;54.600;9.842;2022-12-18T23:38:04;-0.30;97.30
45849;DHT22;31567;54.600;9.842;2022-12-18T23:41:44;-0.30;97.30
45849;DHT22;31567;54.600;9.842;2022-12-18T23:45:23;-0.30;97.20
45849;DHT22;31567;54.600;9.842;2022-12-18T23:49:04;-0.40;97.00
45849;DHT22;31567;54.600;9.842;2022-12-18T23:52:43;-0.40;97.10
45849;DHT22;31567;54.600;9.842;2022-12-18T23:56:24;-0.40;97.30
